Time;durP1;ratioP1;P1;durP2;ratioP2;P2;SDS_P1;SDS_P2;PMS_P1;PMS_P2;Temp;Humidity;BMP_temperature;BMP_pressure;BME280_temperature;BME280_humidity;BME280_pressure;Samples;Min_cycle;Max_cycle;Signal;HPM_P1;HPM_P2
2022/11/30 00:01:59;;;;;;;53.13;32.17;;;6.70;99.90;;;;;;4918066;28;92884;-35
2022/11/30 00:04:25;;;;;;;55.63;34.60;;;6.70;99.90;;;;;;4917357;28;94769;-31
2022/11/30 00:06:55;;;;;;;47.13;34.53;;;6.70;99.90;;;;;;4909703;28;94865;-34
2022/11/30 00:09:21;;;;;;;53.80;34.42;;;6.70;99.90;;;;;;4912789;28;92905;-33
2022/11/30 00:11:46;;;;;;;50.00;34.53;;;6.70;99.90;;;;;;4917310;28;93273;-34
2022/11/30 00:14:12;;;;;;;50.60;34.88;;;6.70;99.90;;;;;;4917044;28;95209;-33
2022/11/30 00:16:38;;;;;;;51.03;33.20;;;6.70;99.90;;;;;;4917584;28;95608;-32
2022/11/30 00:19:03;;;;;;;48.75;33.15;;;6.70;99.90;;;;;;4917500;28;93127;-32
2022/11/30 00:21:29;;;;;;;56.28;34.10;;;6.70;99.90;;;;;;4917076;28;92242;-33
2022/11/30 00:23:54;;;;;;;52.38;33.75;;;6.70;99.90;;;;;;4918258;28;94533;-32
2022/11/30 00:26:21;;;;;;;44.67;31.83;;;6.70;99.90;;;;;;4917232;28;94420;-34
2022/11/30 00:28:47;;;;;;;50.30;35.25;;;6.70;99.90;;;;;;4917754;28;93381;-32
2022/11/30 00:31:14;;;;;;;53.17;35.47;;;6.70;99.90;;;;;;4917819;28;93822;-34
2022/11/30 00:33:40;;;;;;;50.28;34.15;;;6.70;99.90;;;;;;4916781;28;95067;-34
2022/11/30 00:36:10;;;;;;;53.47;34.90;;;6.70;99.90;;;;;;4917548;28;94378;-33
2022/11/30 00:38:35;;;;;;;46.15;33.38;;;6.80;99.90;;;;;;4917090;28;95657;-32
2022/11/30 00:41:02;;;;;;;47.83;35.22;;;6.80;99.90;;;;;;4917260;28;94127;-32
2022/11/30 00:43:29;;;;;;;49.08;35.15;;;6.70;99.90;;;;;;4916394;28;95011;-31
2022/11/30 00:45:54;;;;;;;50.20;34.60;;;6.70;99.90;;;;;;4917553;28;95001;-32
2022/11/30 00:48:20;;;;;;;56.72;36.00;;;6.70;99.90;;;;;;4917691;28;92092;-34
2022/11/30 00:50:48;;;;;;;45.67;30.85;;;6.70;99.90;;;;;;4917472;28;94492;-32
2022/11/30 00:53:13;;;;;;;50.27;35.53;;;6.70;99.90;;;;;;4916793;28;95202;-31
2022/11/30 00:55:39;;;;;;;55.13;37.08;;;6.70;99.90;;;;;;4916420;28;94196;-32
2022/11/30 00:58:06;;;;;;;59.78;38.92;;;6.70;99.90;;;;;;4917647;28;94308;-35
2022/11/30 01:00:31;;;;;;;60.28;39.03;;;6.70;99.90;;;;;;4916416;28;92947;-33
2022/11/30 01:03:01;;;;;;;68.55;40.53;;;6.70;99.90;;;;;;4916163;28;96110;-32
2022/11/30 01:05:27;;;;;;;66.90;43.35;;;6.80;99.90;;;;;;4915781;28;95703;-33
2022/11/30 01:07:53;;;;;;;73.82;47.88;;;6.80;99.90;;;;;;4903942;28;93582;-32
2022/11/30 01:10:19;;;;;;;76.75;46.95;;;6.80;99.90;;;;;;4916737;28;94317;-31
2022/11/30 01:12:45;;;;;;;71.90;44.92;;;6.80;99.90;;;;;;4916265;28;95336;-34
2022/11/30 01:15:10;;;;;;;67.38;39.95;;;6.80;99.90;;;;;;4917687;28;94486;-30
2022/11/30 01:17:36;;;;;;;66.40;41.78;;;6.80;99.90;;;;;;4919469;28;94620;-33
2022/11/30 01:20:02;;;;;;;79.95;44.75;;;6.80;99.90;;;;;;4920753;28;92550;-32
2022/11/30 01:22:28;;;;;;;64.20;42.60;;;6.70;99.90;;;;;;4919210;28;94699;-33
2022/11/30 01:24:55;;;;;;;64.72;40.60;;;6.70;99.90;;;;;;4920392;28;93739;-31
2022/11/30 01:27:20;;;;;;;75.15;43.22;;;6.70;99.90;;;;;;4920429;28;94320;-34
2022/11/30 01:29:46;;;;;;;64.85;41.20;;;6.70;99.90;;;;;;4920119;28;92960;-32
2022/11/30 01:32:11;;;;;;;60.03;40.47;;;6.70;99.90;;;;;;4920235;28;95144;-32
2022/11/30 01:34:37;;;;;;;61.58;39.50;;;6.60;99.90;;;;;;4919376;28;94298;-34
2022/11/30 01:37:02;;;;;;;57.70;39.83;;;6.70;99.90;;;;;;4920538;28;94397;-34
2022/11/30 01:39:28;;;;;;;60.28;39.28;;;6.60;99.90;;;;;;4920216;28;92554;-33
2022/11/30 01:41:54;;;;;;;53.65;39.67;;;6.70;99.90;;;;;;4920125;28;95418;-32
2022/11/30 01:44:25;;;;;;;57.92;40.85;;;6.60;99.90;;;;;;4920163;28;94799;-32
2022/11/30 01:47:01;;;;;;;56.97;38.78;;;6.70;99.90;;;;;;4920214;28;92758;-32
2022/11/30 01:49:29;;;;;;;55.80;38.63;;;6.70;99.90;;;;;;4919292;28;92216;-32
2022/11/30 01:52:12;;;;;;;53.40;36.45;;;6.60;99.90;;;;;;4919299;28;95852;-34
2022/11/30 01:55:15;;;;;;;55.20;36.28;;;6.60;99.90;;;;;;4918621;28;96509;-34
2022/11/30 01:57:46;;;;;;;53.65;37.97;;;6.60;99.90;;;;;;4906383;28;92697;-33
2022/11/30 02:00:14;;;;;;;50.75;35.90;;;6.60;99.90;;;;;;4919714;28;94367;-32
2022/11/30 02:02:59;;;;;;;47.33;35.25;;;6.60;99.90;;;;;;4918938;28;94516;-35
2022/11/30 02:05:26;;;;;;;48.88;34.42;;;6.60;99.90;;;;;;4919840;28;94685;-34
2022/11/30 02:07:52;;;;;;;48.05;33.13;;;6.60;99.90;;;;;;4906323;28;93124;-32
2022/11/30 02:10:23;;;;;;;47.53;36.40;;;6.60;99.90;;;;;;4919801;28;93056;-34
2022/11/30 02:13:13;;;;;;;47.78;33.30;;;6.60;99.90;;;;;;4919177;28;94608;-33
2022/11/30 02:16:21;;;;;;;46.58;34.58;;;6.50;99.90;;;;;;4919839;28;96129;-33
2022/11/30 02:19:05;;;;;;;;;;;6.50;99.90;;;;;;4917272;28;95034;-32
2022/11/30 02:21:40;;;;;;;50.38;35.05;;;6.40;99.90;;;;;;4920931;28;92649;-32
2022/11/30 02:24:24;;;;;;;47.47;32.80;;;6.50;99.90;;;;;;4919476;28;95111;-32
2022/11/30 02:27:18;;;;;;;52.65;32.92;;;6.40;99.90;;;;;;4917894;28;94564;-32
2022/11/30 02:29:55;;;;;;;47.10;32.85;;;6.40;99.90;;;;;;4919113;28;94916;-34
2022/11/30 02:32:36;;;;;;;43.97;32.08;;;6.40;99.90;;;;;;4919503;28;94543;-33
2022/11/30 02:35:04;;;;;;;57.60;34.97;;;6.40;99.90;;;;;;4918810;28;94530;-33
2022/11/30 02:37:30;;;;;;;47.63;35.55;;;6.40;99.90;;;;;;4919515;28;94259;-32
2022/11/30 02:39:57;;;;;;;37.55;27.85;;;6.40;99.90;;;;;;4919092;28;92779;-33
2022/11/30 02:42:22;;;;;;;46.67;32.85;;;6.40;99.90;;;;;;4918615;28;93568;-34
2022/11/30 02:44:51;;;;;;;43.92;30.88;;;6.40;99.90;;;;;;4918507;28;95762;-31
2022/11/30 02:47:42;;;;;;;46.58;32.08;;;6.40;99.90;;;;;;4918661;28;95411;-34
2022/11/30 02:50:20;;;;;;;48.83;32.40;;;6.50;99.90;;;;;;4919678;28;93415;-33
2022/11/30 02:52:47;;;;;;;51.33;33.75;;;6.40;99.90;;;;;;4919148;28;92252;-34
2022/11/30 02:55:15;;;;;;;49.85;34.28;;;6.40;99.90;;;;;;4918442;28;94725;-34
2022/11/30 02:57:41;;;;;;;45.85;33.85;;;6.50;99.90;;;;;;4918139;28;94521;-33
2022/11/30 03:00:12;;;;;;;42.95;32.30;;;6.40;99.90;;;;;;4919010;28;92132;-32
2022/11/30 03:02:38;;;;;;;53.08;35.55;;;6.40;99.90;;;;;;4918588;28;93891;-32
2022/11/30 03:05:04;;;;;;;49.42;34.38;;;6.40;99.90;;;;;;4919428;28;94237;-30
2022/11/30 03:07:30;;;;;;;39.63;30.35;;;6.40;99.90;;;;;;4904764;28;95866;-33
2022/11/30 03:09:55;;;;;;;50.92;35.65;;;6.40;99.90;;;;;;4918712;28;94513;-32
2022/11/30 03:12:21;;;;;;;47.00;32.85;;;6.40;99.90;;;;;;4918323;28;92946;-33
2022/11/30 03:14:47;;;;;;;46.85;34.15;;;6.40;99.90;;;;;;4918136;28;94508;-35
2022/11/30 03:17:13;;;;;;;49.05;35.72;;;6.40;99.90;;;;;;4919289;28;94727;-33
2022/11/30 03:19:38;;;;;;;50.10;34.70;;;6.40;99.90;;;;;;4918722;28;94828;-32
2022/11/30 03:22:04;;;;;;;44.63;33.60;;;6.50;99.90;;;;;;4918523;28;94250;-33
2022/11/30 03:24:29;;;;;;;51.33;35.20;;;6.50;99.90;;;;;;4917460;28;94240;-32
2022/11/30 03:26:55;;;;;;;46.55;33.47;;;6.40;99.90;;;;;;4918709;28;93447;-34
2022/11/30 03:29:21;;;;;;;50.33;35.40;;;6.40;99.90;;;;;;4918755;28;93324;-35
2022/11/30 03:31:46;;;;;;;53.60;36.60;;;6.50;99.90;;;;;;4908104;28;94445;-34
2022/11/30 03:34:12;;;;;;;48.88;35.42;;;6.50;99.90;;;;;;4917822;28;95760;-32
2022/11/30 03:36:37;;;;;;;50.67;33.83;;;6.40;99.90;;;;;;4917568;28;96014;-32
2022/11/30 03:39:03;;;;;;;46.72;35.42;;;6.40;99.90;;;;;;4917795;28;92132;-32
2022/11/30 03:41:29;;;;;;;51.92;34.72;;;6.40;99.90;;;;;;4918111;28;94524;-33
2022/11/30 03:43:54;;;;;;;47.35;34.28;;;6.40;99.90;;;;;;4917996;28;94837;-35
2022/11/30 03:46:20;;;;;;;43.47;32.78;;;6.40;99.90;;;;;;4917907;28;94725;-34
2022/11/30 03:48:46;;;;;;;47.35;33.95;;;6.40;99.90;;;;;;4917648;28;92478;-33
2022/11/30 03:51:12;;;;;;;44.55;32.40;;;6.40;99.90;;;;;;4918502;28;93519;-32
2022/11/30 03:53:39;;;;;;;46.40;34.58;;;6.40;99.90;;;;;;4918057;28;94564;-32
2022/11/30 03:56:07;;;;;;;49.20;34.10;;;6.40;99.90;;;;;;4917296;28;95361;-34
2022/11/30 03:58:34;;;;;;;42.78;31.67;;;6.40;99.90;;;;;;4904014;28;93445;-33
2022/11/30 04:01:04;;;;;;;46.85;33.58;;;6.40;99.90;;;;;;4898631;28;93940;-32
2022/11/30 04:03:30;;;;;;;55.92;35.88;;;6.40;99.90;;;;;;4902335;28;94878;-33
2022/11/30 04:05:56;;;;;;;49.40;33.17;;;6.40;99.90;;;;;;4916470;28;94601;-31
2022/11/30 04:08:22;;;;;;;51.28;34.20;;;6.50;99.90;;;;;;4904641;28;93195;-31
2022/11/30 04:10:52;;;;;;;48.63;35.38;;;6.50;99.90;;;;;;4917438;28;94374;-33
2022/11/30 04:13:19;;;;;;;47.88;33.42;;;6.60;99.90;;;;;;4917209;28;95026;-32
2022/11/30 04:15:46;;;;;;;54.97;34.30;;;6.50;99.90;;;;;;4909472;28;93713;-34
2022/11/30 04:18:13;;;;;;;51.25;35.30;;;6.50;99.90;;;;;;4911912;28;94403;-32
2022/11/30 04:20:38;;;;;;;59.67;35.88;;;6.50;99.90;;;;;;4917978;28;94936;-32
2022/11/30 04:23:04;;;;;;;44.78;31.55;;;6.40;99.90;;;;;;4916601;28;96039;-31
2022/11/30 04:25:30;;;;;;;51.13;35.10;;;6.40;99.90;;;;;;4917424;28;95126;-34
2022/11/30 04:27:55;;;;;;;43.33;32.83;;;6.40;99.90;;;;;;4917530;28;94043;-32
2022/11/30 04:30:23;;;;;;;45.97;31.48;;;6.50;99.90;;;;;;4917813;28;94872;-35
2022/11/30 04:32:48;;;;;;;50.53;34.08;;;6.40;99.90;;;;;;4909839;28;96607;-32
2022/11/30 04:35:14;;;;;;;54.17;34.92;;;6.40;99.90;;;;;;4911092;28;94719;-34
2022/11/30 04:37:39;;;;;;;59.05;35.92;;;6.50;99.90;;;;;;4917600;28;93521;-32
2022/11/30 04:40:06;;;;;;;54.58;37.78;;;6.50;99.90;;;;;;4917596;28;91422;-34
2022/11/30 04:42:31;;;;;;;46.85;33.20;;;6.40;99.90;;;;;;4916706;28;95439;-35
2022/11/30 04:44:57;;;;;;;52.72;36.60;;;6.40;99.90;;;;;;4917227;28;94372;-32
2022/11/30 04:47:23;;;;;;;57.58;37.90;;;6.30;99.90;;;;;;4916754;28;95652;-31
2022/11/30 04:49:48;;;;;;;49.78;34.22;;;6.30;99.90;;;;;;4918037;28;93985;-33
2022/11/30 04:52:14;;;;;;;53.88;37.03;;;6.30;99.90;;;;;;4920775;28;93774;-32
2022/11/30 04:54:40;;;;;;;52.42;32.60;;;6.30;99.90;;;;;;4920420;28;95394;-32
2022/11/30 04:57:06;;;;;;;46.78;33.45;;;6.40;99.90;;;;;;4920956;28;92658;-32
2022/11/30 04:59:31;;;;;;;37.97;29.90;;;6.40;99.90;;;;;;4920517;28;93068;-33
2022/11/30 05:01:57;;;;;;;51.63;31.92;;;6.40;99.90;;;;;;4919296;28;94653;-32
2022/11/30 05:04:22;;;;;;;44.28;31.88;;;6.40;99.90;;;;;;4920366;28;95358;-35
2022/11/30 05:06:48;;;;;;;46.53;33.33;;;6.30;99.90;;;;;;4913467;28;93449;-34
2022/11/30 05:09:14;;;;;;;51.88;36.15;;;6.30;99.90;;;;;;4913681;28;92629;-33
2022/11/30 05:11:39;;;;;;;40.65;29.65;;;6.30;99.90;;;;;;4920004;28;95474;-33
2022/11/30 05:14:05;;;;;;;45.50;33.35;;;6.30;99.90;;;;;;4920626;28;96729;-31
2022/11/30 05:16:30;;;;;;;51.55;35.13;;;6.30;99.90;;;;;;4920084;28;92267;-32
2022/11/30 05:18:56;;;;;;;47.67;35.97;;;6.20;99.90;;;;;;4919794;28;92771;-34
2022/11/30 05:21:22;;;;;;;43.92;34.30;;;6.20;99.90;;;;;;4919821;28;94751;-33
2022/11/30 05:23:47;;;;;;;49.35;34.33;;;6.20;99.90;;;;;;4920529;28;94626;-33
2022/11/30 05:26:14;;;;;;;50.95;34.33;;;6.20;99.90;;;;;;4920812;28;92223;-31
2022/11/30 05:28:39;;;;;;;38.13;32.03;;;6.20;99.90;;;;;;4919952;28;92745;-33
2022/11/30 05:31:05;;;;;;;40.53;30.05;;;6.20;99.90;;;;;;4920339;28;95243;-30
2022/11/30 05:33:32;;;;;;;43.20;29.45;;;6.20;99.90;;;;;;4919517;28;94682;-34
2022/11/30 05:35:57;;;;;;;44.88;28.95;;;6.20;99.90;;;;;;4920283;28;94298;-34
2022/11/30 05:38:23;;;;;;;45.28;31.40;;;6.20;99.90;;;;;;4920359;28;93600;-34
2022/11/30 05:40:48;;;;;;;43.05;32.17;;;6.20;99.90;;;;;;4919665;28;94550;-35
2022/11/30 05:43:14;;;;;;;53.35;33.88;;;6.20;99.90;;;;;;4920074;28;93422;-30
2022/11/30 05:45:39;;;;;;;45.53;33.50;;;6.20;99.90;;;;;;4919311;28;93338;-31
2022/11/30 05:48:05;;;;;;;50.00;34.03;;;6.20;99.90;;;;;;4920216;28;93766;-32
2022/11/30 05:50:31;;;;;;;45.63;33.92;;;6.10;99.90;;;;;;4919356;28;94917;-34
2022/11/30 05:52:59;;;;;;;47.10;34.05;;;6.20;99.90;;;;;;4919851;28;94502;-33
2022/11/30 05:55:26;;;;;;;43.80;33.00;;;6.20;99.90;;;;;;4920233;28;94459;-31
2022/11/30 05:57:52;;;;;;;50.75;34.00;;;6.10;99.90;;;;;;4919579;28;92124;-33
2022/11/30 06:00:19;;;;;;;47.58;32.95;;;6.10;99.90;;;;;;4918899;28;95735;-31
2022/11/30 06:02:45;;;;;;;40.63;31.50;;;6.20;99.90;;;;;;4919152;28;95655;-34
2022/11/30 06:05:12;;;;;;;44.78;32.53;;;6.20;99.90;;;;;;4919822;28;92336;-33
2022/11/30 06:07:38;;;;;;;45.05;31.20;;;6.10;99.90;;;;;;4905502;28;92212;-32
2022/11/30 06:10:04;;;;;;;43.75;30.67;;;6.20;99.90;;;;;;4906613;28;94676;-31
2022/11/30 06:12:30;;;;;;;38.38;29.90;;;6.20;99.90;;;;;;4918890;28;95787;-32
2022/11/30 06:14:55;;;;;;;39.42;30.70;;;6.10;99.90;;;;;;4916382;28;93515;-32
2022/11/30 06:17:21;;;;;;;36.10;28.67;;;6.20;99.90;;;;;;4916848;28;91428;-31
2022/11/30 06:19:47;;;;;;;39.63;28.25;;;6.20;99.90;;;;;;4902962;28;94645;-32
2022/11/30 06:22:12;;;;;;;38.53;28.92;;;6.20;99.90;;;;;;4900566;28;94868;-34
2022/11/30 06:24:38;;;;;;;45.20;28.25;;;6.20;99.90;;;;;;4899882;28;95496;-32
2022/11/30 06:27:03;;;;;;;39.80;29.23;;;6.10;99.90;;;;;;4904205;28;92161;-33
2022/11/30 06:29:29;;;;;;;37.88;27.65;;;6.20;99.90;;;;;;4915546;28;95567;-32
2022/11/30 06:31:54;;;;;;;37.65;28.50;;;6.10;99.90;;;;;;4915191;28;94426;-32
2022/11/30 06:34:20;;;;;;;43.35;29.35;;;6.10;99.90;;;;;;4916521;28;94325;-32
2022/11/30 06:36:45;;;;;;;36.42;26.08;;;6.10;99.90;;;;;;4911315;28;93586;-32
2022/11/30 06:39:12;;;;;;;37.60;31.25;;;6.10;99.90;;;;;;4910579;28;95115;-31
2022/11/30 06:41:37;;;;;;;40.35;30.95;;;6.10;99.90;;;;;;4913163;28;95423;-33
2022/11/30 06:44:08;;;;;;;34.00;29.88;;;6.10;99.90;;;;;;4908870;28;93085;-32
2022/11/30 06:46:33;;;;;;;45.53;30.02;;;6.10;99.90;;;;;;4913649;28;93356;-33
2022/11/30 06:48:59;;;;;;;39.15;29.45;;;6.00;99.90;;;;;;4908965;28;95687;-32
2022/11/30 06:51:25;;;;;;;42.85;30.70;;;6.10;99.90;;;;;;4912094;28;95420;-32
2022/11/30 06:53:51;;;;;;;41.72;29.40;;;6.00;99.90;;;;;;4911597;28;93483;-32
2022/11/30 06:56:16;;;;;;;40.92;30.30;;;6.00;99.90;;;;;;4910312;28;92516;-34
2022/11/30 06:58:42;;;;;;;43.83;31.58;;;6.00;99.90;;;;;;4913995;28;94829;-33
2022/11/30 07:01:11;;;;;;;42.25;30.52;;;6.00;99.90;;;;;;4908705;28;95984;-32
2022/11/30 07:03:37;;;;;;;41.83;30.30;;;6.00;99.90;;;;;;4912979;28;92525;-33
2022/11/30 07:06:08;;;;;;;40.80;28.42;;;6.00;99.90;;;;;;4905440;28;92489;-32
2022/11/30 07:08:33;;;;;;;37.08;28.98;;;6.10;99.90;;;;;;4907052;28;92957;-33
2022/11/30 07:10:59;;;;;;;44.90;31.05;;;6.00;99.90;;;;;;4919640;28;94433;-33
2022/11/30 07:13:24;;;;;;;44.53;30.58;;;6.00;99.90;;;;;;4916683;28;94784;-32
2022/11/30 07:15:50;;;;;;;38.08;27.35;;;6.00;99.90;;;;;;4918689;28;92213;-33
2022/11/30 07:18:16;;;;;;;35.72;26.42;;;6.00;99.90;;;;;;4917856;28;94845;-33
2022/11/30 07:20:41;;;;;;;35.92;28.48;;;6.00;99.90;;;;;;4918173;28;94591;-33
2022/11/30 07:26:05;;;;;;;35.58;29.15;;;5.90;99.90;;;;;;4917769;28;92575;-32
2022/11/30 07:28:31;;;;;;;39.92;27.52;;;5.90;99.90;;;;;;4917691;28;94745;-31
2022/11/30 07:30:56;;;;;;;30.65;26.98;;;5.90;99.90;;;;;;4919092;28;94592;-32
2022/11/30 07:33:22;;;;;;;32.00;23.65;;;5.90;99.90;;;;;;4919011;28;93638;-34
2022/11/30 07:35:48;;;;;;;32.55;23.45;;;5.90;99.90;;;;;;4918417;28;92839;-34
2022/11/30 07:38:13;;;;;;;31.15;24.83;;;6.00;99.90;;;;;;4917639;28;95634;-33
2022/11/30 07:40:39;;;;;;;31.75;23.73;;;6.00;99.90;;;;;;4917689;28;95954;-35
2022/11/30 07:43:04;;;;;;;31.58;24.35;;;6.00;99.90;;;;;;4918351;28;92501;-31
2022/11/30 07:45:30;;;;;;;35.80;24.63;;;6.00;99.90;;;;;;4918137;28;93790;-31
2022/11/30 07:47:57;;;;;;;28.88;23.95;;;5.90;99.90;;;;;;4917739;28;94929;-31
2022/11/30 07:50:23;;;;;;;32.08;22.90;;;5.90;99.90;;;;;;4918302;28;94694;-33
2022/11/30 07:52:49;;;;;;;32.13;24.80;;;5.90;99.90;;;;;;4904792;28;93318;-33
2022/11/30 07:55:14;;;;;;;27.65;23.10;;;5.90;99.90;;;;;;4916137;28;92313;-33
2022/11/30 07:57:40;;;;;;;31.50;24.55;;;5.90;99.90;;;;;;4915879;28;94589;-32
2022/11/30 08:00:08;;;;;;;26.90;22.27;;;5.90;99.90;;;;;;4915813;28;94261;-32
2022/11/30 08:02:33;;;;;;;37.00;24.93;;;6.00;99.90;;;;;;4914368;28;93528;-33
2022/11/30 08:04:59;;;;;;;31.35;24.83;;;5.90;99.90;;;;;;4905717;28;94081;-34
2022/11/30 08:07:24;;;;;;;32.42;24.58;;;5.90;99.90;;;;;;4904512;28;95196;-33
2022/11/30 08:09:50;;;;;;;30.95;24.60;;;5.90;99.90;;;;;;4914519;28;94416;-31
2022/11/30 08:12:16;;;;;;;34.45;24.88;;;6.00;99.90;;;;;;4923665;28;92984;-32
2022/11/30 08:14:41;;;;;;;34.80;26.75;;;5.90;99.90;;;;;;4910060;28;94262;-32
2022/11/30 08:17:08;;;;;;;32.83;24.10;;;5.90;99.90;;;;;;4907889;28;94696;-34
2022/11/30 08:19:33;;;;;;;33.83;26.08;;;6.00;99.90;;;;;;4908617;28;94044;-33
2022/11/30 08:21:59;;;;;;;33.90;26.33;;;6.00;99.90;;;;;;4902936;28;93129;-33
2022/11/30 08:24:25;;;;;;;33.65;26.42;;;5.90;99.90;;;;;;4907127;28;94542;-33
2022/11/30 08:26:51;;;;;;;33.42;24.80;;;5.90;99.90;;;;;;4903919;28;95503;-32
2022/11/30 08:29:17;;;;;;;28.27;23.13;;;5.90;99.90;;;;;;4901739;28;95562;-32
2022/11/30 08:31:44;;;;;;;29.52;24.15;;;5.90;99.90;;;;;;4896431;28;92463;-32
2022/11/30 08:34:12;;;;;;;26.17;23.48;;;5.90;99.90;;;;;;4897076;28;95015;-32
2022/11/30 08:36:38;;;;;;;29.08;23.40;;;5.90;99.90;;;;;;4895453;28;95524;-32
2022/11/30 08:39:06;;;;;;;27.20;21.05;;;5.90;99.90;;;;;;4896034;28;94665;-36
2022/11/30 08:41:34;;;;;;;24.52;21.90;;;5.90;99.90;;;;;;4896734;28;93173;-32
2022/11/30 08:44:00;;;;;;;25.92;20.55;;;5.90;99.90;;;;;;4897262;28;92382;-33
2022/11/30 08:46:26;;;;;;;29.23;23.10;;;5.90;99.90;;;;;;4896365;28;95062;-33
2022/11/30 08:48:52;;;;;;;24.17;20.75;;;5.90;99.90;;;;;;4896124;28;93079;-31
2022/11/30 08:51:19;;;;;;;28.15;22.40;;;6.00;99.90;;;;;;4895523;28;95789;-34
2022/11/30 08:53:47;;;;;;;26.42;21.00;;;6.00;99.90;;;;;;4895357;28;92728;-32
2022/11/30 08:56:15;;;;;;;24.17;20.35;;;6.00;99.90;;;;;;4896949;28;94777;-31
2022/11/30 08:58:41;;;;;;;27.10;21.90;;;6.00;99.90;;;;;;4896067;28;94713;-35
2022/11/30 09:01:16;;;;;;;25.13;20.73;;;6.00;99.90;;;;;;4895829;28;94669;-32
2022/11/30 09:03:43;;;;;;;27.00;20.52;;;6.00;99.90;;;;;;4895894;28;93894;-32
2022/11/30 09:06:23;;;;;;;25.38;21.38;;;6.00;99.90;;;;;;4896368;28;94674;-31
2022/11/30 09:08:50;;;;;;;26.23;22.27;;;6.00;99.90;;;;;;4905836;28;94608;-33
2022/11/30 09:11:19;;;;;;;27.00;23.13;;;5.90;99.90;;;;;;4916209;28;94288;-31
2022/11/30 09:13:48;;;;;;;27.05;22.05;;;5.90;99.90;;;;;;4915456;28;93224;-34
2022/11/30 09:16:16;;;;;;;26.85;21.08;;;6.00;99.90;;;;;;4914069;28;96921;-33
2022/11/30 09:18:42;;;;;;;29.35;22.50;;;6.00;99.90;;;;;;4948351;23;94246;-32
2022/11/30 09:21:10;;;;;;;31.48;23.02;;;6.00;99.90;;;;;;4915381;28;94518;-33
2022/11/30 09:23:36;;;;;;;30.10;24.38;;;6.10;99.90;;;;;;4915462;28;93896;-32
2022/11/30 09:26:04;;;;;;;24.05;21.27;;;6.00;99.90;;;;;;4914955;28;94732;-32
2022/11/30 09:28:30;;;;;;;26.80;22.45;;;6.00;99.90;;;;;;4914179;28;94430;-33
2022/11/30 09:31:17;;;;;;;27.80;23.38;;;6.00;99.90;;;;;;4915345;28;93294;-33
2022/11/30 09:33:43;;;;;;;29.90;23.25;;;6.00;99.90;;;;;;4915058;28;92670;-33
2022/11/30 09:36:11;;;;;;;28.15;22.50;;;6.10;99.90;;;;;;4915666;28;94377;-32
2022/11/30 09:38:37;;;;;;;;;;;6.00;99.90;;;;;;4918040;28;94864;-34
2022/11/30 09:41:37;;;;;;;23.77;20.88;;;6.10;99.90;;;;;;4919885;28;94223;-33
2022/11/30 09:44:24;;;;;;;31.05;21.92;;;6.10;99.90;;;;;;4918076;28;93284;-32
2022/11/30 09:47:01;;;;;;;28.77;22.73;;;6.10;99.90;;;;;;4918271;28;94783;-33
2022/11/30 09:49:31;;;;;;;29.70;23.60;;;6.20;99.90;;;;;;4917465;28;94557;-33
2022/11/30 09:52:03;;;;;;;27.52;22.73;;;6.20;99.90;;;;;;4917968;28;92090;-33
2022/11/30 09:54:47;;;;;;;29.35;22.35;;;6.10;99.90;;;;;;4916839;28;93287;-32
2022/11/30 09:57:24;;;;;;;27.90;23.98;;;6.20;99.90;;;;;;4917918;28;93100;-33
2022/11/30 09:59:56;;;;;;;27.45;23.35;;;6.20;99.90;;;;;;4918539;28;94225;-32
2022/11/30 10:02:27;;;;;;;29.63;24.20;;;6.20;99.90;;;;;;4909022;28;93461;-35
2022/11/30 10:04:53;;;;;;;27.08;23.08;;;6.20;99.90;;;;;;4908888;28;92343;-34
2022/11/30 10:07:34;;;;;;;31.58;25.30;;;6.20;99.90;;;;;;4901812;28;95491;-31
2022/11/30 10:10:38;;;;;;;30.92;23.88;;;6.20;99.90;;;;;;4916887;28;95756;-31
2022/11/30 10:13:22;;;;;;;26.27;23.42;;;6.30;99.90;;;;;;4916242;28;93260;-31
2022/11/30 10:16:13;;;;;;;28.65;22.55;;;6.30;99.90;;;;;;4916988;28;93041;-32
2022/11/30 10:19:20;;;;;;;27.83;22.95;;;6.30;99.90;;;;;;4916900;28;95034;-34
2022/11/30 10:21:54;;;;;;;29.40;23.13;;;6.20;99.90;;;;;;4917751;28;94497;-32
2022/11/30 10:24:37;;;;;;;31.05;23.58;;;6.20;99.90;;;;;;4917768;28;94365;-33
2022/11/30 10:27:24;;;;;;;30.10;25.85;;;6.20;99.90;;;;;;4917885;28;93759;-34
2022/11/30 10:29:50;;;;;;;31.13;23.55;;;6.20;99.90;;;;;;4910839;28;94729;-34
2022/11/30 10:32:22;;;;;;;26.60;22.30;;;6.30;99.90;;;;;;4897392;28;95380;-32
2022/11/30 10:34:53;;;;;;;27.60;23.80;;;6.30;99.90;;;;;;4896921;28;94714;-32
2022/11/30 10:37:38;;;;;;;30.88;24.50;;;6.30;99.90;;;;;;4896972;28;92803;-33
2022/11/30 10:40:09;;;;;;;27.67;23.50;;;6.30;99.90;;;;;;4897015;28;95500;-33
2022/11/30 10:42:49;;;;;;;26.92;23.23;;;6.30;99.90;;;;;;4896790;28;95345;-31
2022/11/30 10:45:23;;;;;;;29.90;24.95;;;6.30;99.90;;;;;;4897238;28;92711;-32
2022/11/30 10:47:58;;;;;;;28.70;24.67;;;6.30;99.90;;;;;;4896431;28;94699;-32
2022/11/30 10:50:27;;;;;;;30.80;23.70;;;6.30;99.90;;;;;;4897204;28;94685;-34
2022/11/30 10:52:56;;;;;;;33.50;24.67;;;6.30;99.90;;;;;;4897912;28;94285;-32
2022/11/30 10:55:27;;;;;;;;;;;6.30;99.90;;;;;;4898517;28;94525;-32
2022/11/30 10:57:57;;;;;;;38.50;26.45;;;6.30;99.90;;;;;;4899619;28;93934;-32
2022/11/30 11:00:23;;;;;;;38.97;30.35;;;6.30;99.90;;;;;;4897517;28;95568;-33
2022/11/30 11:02:50;;;;;;;43.05;30.88;;;6.30;99.90;;;;;;4897542;28;95571;-32
2022/11/30 11:05:22;;;;;;;47.35;31.33;;;6.30;99.90;;;;;;4897346;28;93165;-32
2022/11/30 11:07:53;;;;;;;42.60;31.70;;;6.30;99.90;;;;;;4897699;28;93142;-33
2022/11/30 11:10:34;;;;;;;46.65;29.85;;;6.30;99.90;;;;;;4916791;28;94762;-31
2022/11/30 11:13:00;;;;;;;49.60;33.92;;;6.30;99.90;;;;;;4916902;28;94819;-31
2022/11/30 11:15:27;;;;;;;44.47;30.17;;;6.30;99.90;;;;;;4916289;28;94461;-33
2022/11/30 11:18:10;;;;;;;51.13;33.03;;;6.30;99.90;;;;;;4916285;28;92115;-34
2022/11/30 11:20:43;;;;;;;47.20;32.38;;;6.20;99.90;;;;;;4929353;28;118403;-34
2022/11/30 11:23:21;;;;;;;45.53;32.70;;;6.20;99.90;;;;;;4916399;28;94338;-31
2022/11/30 11:25:51;;;;;;;50.70;33.03;;;6.20;99.90;;;;;;4916191;28;94694;-33
2022/11/30 11:28:20;;;;;;;50.10;34.92;;;6.20;99.90;;;;;;4916375;28;93320;-34
2022/11/30 11:30:46;;;;;;;;;;;6.20;99.90;;;;;;4916279;28;94791;-32
2022/11/30 11:33:11;;;;;;;48.03;33.92;;;6.20;99.90;;;;;;4917746;28;94611;-34
2022/11/30 11:35:45;;;;;;;43.15;32.00;;;6.20;99.90;;;;;;4916219;28;94359;-34
2022/11/30 11:38:29;;;;;;;46.33;33.28;;;6.30;99.90;;;;;;4916335;28;93314;-33
2022/11/30 11:41:06;;;;;;;43.83;32.00;;;6.30;99.90;;;;;;4892716;28;94745;-33
2022/11/30 11:43:39;;;;;;;40.28;31.00;;;6.30;99.90;;;;;;4915746;28;94584;-33
2022/11/30 11:46:12;;;;;;;52.03;35.42;;;6.20;99.90;;;;;;4916768;28;94202;-34
2022/11/30 11:48:43;;;;;;;54.08;36.10;;;6.30;99.90;;;;;;4915565;28;94001;-32
2022/11/30 11:51:10;;;;;;;51.97;34.65;;;6.40;99.90;;;;;;4914179;28;94996;-35
2022/11/30 11:53:59;;;;;;;45.05;33.45;;;6.30;99.90;;;;;;4914367;28;96001;-32
2022/11/30 11:56:26;;;;;;;55.83;37.80;;;6.40;99.90;;;;;;4903191;28;92759;-33
2022/11/30 11:59:08;;;;;;;51.50;36.60;;;6.30;99.90;;;;;;4902636;28;93102;-32
2022/11/30 12:01:40;;;;;;;51.30;34.70;;;6.30;99.90;;;;;;4899048;28;95174;-35
2022/11/30 12:04:08;;;;;;;50.30;34.53;;;6.40;99.90;;;;;;4903120;28;94128;-33
2022/11/30 12:06:35;;;;;;;51.53;33.88;;;6.40;99.90;;;;;;4910553;28;93404;-33
2022/11/30 12:09:12;;;;;;;53.95;36.88;;;6.40;99.90;;;;;;4912310;28;92905;-32
2022/11/30 12:11:44;;;;;;;58.47;40.03;;;6.40;99.90;;;;;;4910870;28;95202;-32
2022/11/30 12:14:13;;;;;;;61.80;41.08;;;6.40;99.90;;;;;;4913047;28;95011;-32
2022/11/30 12:16:57;;;;;;;57.03;38.85;;;6.40;99.90;;;;;;4909651;28;94827;-34
2022/11/30 12:19:33;;;;;;;59.42;38.38;;;6.40;99.90;;;;;;4912679;28;92716;-34
2022/11/30 12:22:40;;;;;;;70.63;42.53;;;6.40;99.90;;;;;;4909876;28;93283;-34
2022/11/30 12:25:18;;;;;;;58.33;35.00;;;6.40;99.90;;;;;;4907069;28;94093;-32
2022/11/30 12:28:15;;;;;;;60.55;39.35;;;6.40;99.90;;;;;;4912774;28;93718;-32
2022/11/30 12:30:59;;;;;;;63.70;40.55;;;6.40;99.90;;;;;;4911277;28;92499;-34
2022/11/30 12:33:28;;;;;;;63.70;42.17;;;6.40;99.90;;;;;;4899017;28;95054;-34
2022/11/30 12:36:32;;;;;;;73.43;43.58;;;6.40;99.90;;;;;;4913362;28;95823;-34
2022/11/30 12:39:04;;;;;;;66.18;44.20;;;6.40;99.90;;;;;;4910217;28;93371;-34
2022/11/30 12:41:42;;;;;;;72.63;45.65;;;6.40;99.90;;;;;;4912262;28;93324;-33
2022/11/30 12:44:15;;;;;;;81.15;47.20;;;6.40;99.90;;;;;;4910369;28;95723;-32
2022/11/30 12:47:07;;;;;;;64.30;43.25;;;6.30;99.90;;;;;;4913023;28;94585;-35
2022/11/30 12:49:46;;;;;;;74.88;46.13;;;6.30;99.90;;;;;;4903051;28;94713;-34
2022/11/30 12:52:27;;;;;;;80.45;49.20;;;6.30;99.90;;;;;;4910934;28;94304;-33
2022/11/30 12:55:19;;;;;;;83.47;47.30;;;6.30;99.90;;;;;;4912486;28;93837;-32